Dallas, Texas
Traffic Map
Current Weather Conditions
Dallas, Texas
Broken Clouds
Broken Clouds
48°
Feels Like: 43°
Wind Chill: 43° Ceiling: 22000
Heat Index: 48° Visibility: 10mi
Dew Point: 22° Wind: 12mph
Humidity: 36% Direction: 130° (SE)
Pressure: 30.28in Gusts: 0mph
Raw Report DataKDAL 060253Z 13010KT 10SM FEW090 BKN220 09/M06 A3028 RMK AO2 SLP254 T00891056 58003
Traffic Incident Summary
Active as of:
Severity:
Category:
InformationThere was an issue retrieving the traffic information for this location. Please try a different location or try again shortly.
Advertisements
Track Severe Weather on mobile